Time;durP1;ratioP1;P1;durP2;ratioP2;P2;SDS_P1;SDS_P2;PMS_P1;PMS_P2;Temp;Humidity;BMP_temperature;BMP_pressure;BME280_temperature;BME280_humidity;BME280_pressure;Samples;Min_cycle;Max_cycle;Signal;HPM_P1;HPM_P2
2022/10/01 00:01:53;;;;;;;6.10;5.50;;;11.30;99.90;;;;;;5074149;28;20412;-69
2022/10/01 00:04:19;;;;;;;6.10;5.37;;;11.30;99.90;;;;;;5074809;28;20465;-69
2022/10/01 00:06:45;;;;;;;5.33;4.93;;;11.30;99.90;;;;;;5074377;28;20185;-68
2022/10/01 00:09:10;;;;;;;6.33;5.70;;;11.30;99.90;;;;;;5074087;28;20229;-69
2022/10/01 00:11:36;;;;;;;7.80;5.60;;;11.20;99.90;;;;;;5074346;28;20433;-69
2022/10/01 00:14:01;;;;;;;7.23;6.53;;;11.30;99.90;;;;;;5073809;28;20170;-69
2022/10/01 00:16:29;;;;;;;6.63;6.03;;;11.20;99.90;;;;;;5073695;28;20178;-69
2022/10/01 00:18:55;;;;;;;5.77;5.20;;;11.30;99.90;;;;;;5073874;28;20304;-69
2022/10/01 00:21:22;;;;;;;6.50;5.40;;;11.30;99.90;;;;;;5074246;28;20414;-69
2022/10/01 00:23:54;;;;;;;6.33;5.83;;;11.30;99.90;;;;;;5074261;28;20479;-68
2022/10/01 00:26:24;;;;;;;6.53;5.90;;;11.20;99.90;;;;;;5073280;28;20399;-69
2022/10/01 00:28:54;;;;;;;5.73;5.23;;;11.30;99.90;;;;;;5073381;28;20444;-69
2022/10/01 00:31:20;;;;;;;8.10;5.40;;;11.30;99.90;;;;;;5072664;28;20453;-69
2022/10/01 00:33:45;;;;;;;6.27;5.77;;;11.20;99.90;;;;;;5073799;28;20400;-69
2022/10/01 00:36:11;;;;;;;7.50;5.77;;;11.20;99.90;;;;;;5073768;28;20653;-69
2022/10/01 00:38:41;;;;;;;7.07;6.40;;;11.20;99.90;;;;;;5073621;28;20430;-69
2022/10/01 00:41:08;;;;;;;5.53;5.03;;;11.10;99.90;;;;;;5073623;28;20405;-69
2022/10/01 00:43:42;;;;;;;5.87;5.37;;;11.20;99.90;;;;;;5073311;28;20408;-68
2022/10/01 00:46:20;;;;;;;6.67;5.90;;;11.20;99.90;;;;;;5072978;28;20475;-68
2022/10/01 00:48:59;;;;;;;6.13;5.63;;;11.20;99.90;;;;;;5073416;28;20894;-68
2022/10/01 00:51:31;;;;;;;6.30;5.80;;;11.20;99.90;;;;;;5073209;28;20441;-68
2022/10/01 00:54:03;;;;;;;7.20;6.50;;;11.20;99.90;;;;;;5073617;28;20388;-69
2022/10/01 00:56:30;;;;;;;5.90;5.40;;;11.20;99.90;;;;;;5073488;28;20385;-68
2022/10/01 00:58:57;;;;;;;7.40;6.70;;;11.10;99.90;;;;;;5073355;28;20427;-69
2022/10/01 01:01:23;;;;;;;6.10;5.50;;;11.20;99.90;;;;;;5072600;28;20453;-69
2022/10/01 01:03:49;;;;;;;5.83;5.30;;;11.30;99.90;;;;;;5071748;28;20416;-69
2022/10/01 01:06:16;;;;;;;5.73;5.23;;;11.40;99.90;;;;;;5073300;28;20404;-69
2022/10/01 01:08:42;;;;;;;5.57;5.07;;;11.50;99.90;;;;;;5072862;28;20507;-66
2022/10/01 01:11:36;;;;;;;7.90;6.10;;;11.40;99.90;;;;;;5073224;28;20818;-69
2022/10/01 01:14:20;;;;;;;8.30;6.60;;;11.40;99.90;;;;;;5067112;28;20917;-69
2022/10/01 01:16:55;;;;;;;5.27;4.77;;;11.30;99.90;;;;;;5072790;28;20805;-68
2022/10/01 01:20:02;;;;;;;4.80;4.20;;;11.30;99.90;;;;;;5073167;28;20495;-68
2022/10/01 01:22:33;;;;;;;4.50;4.10;;;11.50;99.90;;;;;;5072800;28;20409;-68
2022/10/01 01:25:05;;;;;;;5.33;4.83;;;11.50;99.90;;;;;;5073036;28;20387;-68
2022/10/01 01:27:41;;;;;;;5.30;4.80;;;11.50;99.90;;;;;;5072348;28;20432;-68
2022/10/01 01:30:10;;;;;;;5.47;4.40;;;11.40;99.90;;;;;;5071766;28;20448;-68
2022/10/01 01:32:45;;;;;;;4.63;4.23;;;11.40;99.90;;;;;;5072478;28;20405;-67
2022/10/01 01:35:18;;;;;;;4.50;4.10;;;11.40;99.90;;;;;;5073056;28;20505;-69
2022/10/01 01:37:53;;;;;;;5.03;4.63;;;11.40;99.90;;;;;;5072677;28;20510;-69
2022/10/01 01:40:20;;;;;;;4.83;4.47;;;11.30;99.90;;;;;;5072069;28;20387;-68
2022/10/01 01:42:47;;;;;;;4.87;4.47;;;11.40;99.90;;;;;;5072869;28;20491;-68
2022/10/01 01:45:18;;;;;;;4.57;4.20;;;11.30;99.90;;;;;;5072312;28;20415;-68
2022/10/01 01:47:45;;;;;;;5.03;4.37;;;11.40;99.90;;;;;;5072703;28;20433;-67
2022/10/01 01:50:13;;;;;;;4.90;4.50;;;11.30;99.90;;;;;;5072539;28;20454;-68
2022/10/01 01:52:40;;;;;;;4.53;4.13;;;11.30;99.90;;;;;;5072481;28;20389;-68
2022/10/01 01:55:07;;;;;;;4.50;4.10;;;11.30;99.90;;;;;;5072684;28;20398;-68
2022/10/01 01:57:36;;;;;;;4.50;4.13;;;11.30;99.90;;;;;;5072298;28;20435;-69
2022/10/01 02:00:03;;;;;;;5.17;4.77;;;11.30;99.90;;;;;;5071915;28;20468;-69
2022/10/01 02:02:34;;;;;;;4.80;4.40;;;11.40;99.90;;;;;;5072305;28;20960;-69
2022/10/01 02:05:03;;;;;;;4.67;4.27;;;11.50;99.90;;;;;;5072732;28;20754;-69
2022/10/01 02:07:41;;;;;;;4.60;4.20;;;11.40;99.90;;;;;;5071225;28;20436;-69
2022/10/01 02:10:23;;;;;;;4.90;4.40;;;11.50;99.90;;;;;;5072613;28;20439;-69
2022/10/01 02:13:11;;;;;;;4.50;4.10;;;11.40;99.90;;;;;;5072938;28;20438;-69
2022/10/01 02:16:19;;;;;;;5.27;4.77;;;11.50;99.90;;;;;;5071853;28;20425;-69
2022/10/01 02:19:20;;;;;;;5.13;4.37;;;11.50;99.90;;;;;;5028156;28;20455;-70
2022/10/01 02:21:57;;;;;;;4.37;4.00;;;11.60;99.90;;;;;;5067821;28;20407;-69
2022/10/01 02:24:44;;;;;;;4.23;3.93;;;11.50;99.90;;;;;;5072327;28;20388;-69
2022/10/01 02:27:16;;;;;;;4.43;4.07;;;11.50;99.90;;;;;;5072371;28;20388;-69
2022/10/01 02:29:44;;;;;;;4.40;4.03;;;11.70;99.90;;;;;;5071507;28;20466;-69
2022/10/01 02:32:12;;;;;;;5.53;4.20;;;11.70;99.90;;;;;;5072155;28;20470;-70
2022/10/01 02:34:39;;;;;;;5.30;4.00;;;11.70;99.90;;;;;;5071232;28;20936;-70
2022/10/01 02:37:08;;;;;;;4.73;4.07;;;11.70;99.90;;;;;;5072312;28;20414;-69
2022/10/01 02:39:36;;;;;;;5.40;4.10;;;11.70;99.90;;;;;;5072200;28;20753;-69
2022/10/01 02:42:02;;;;;;;3.90;3.57;;;11.60;99.90;;;;;;5072438;28;20770;-69
2022/10/01 02:44:37;;;;;;;5.90;4.90;;;11.50;99.90;;;;;;5071976;28;20416;-71
2022/10/01 02:47:08;;;;;;;4.43;4.00;;;11.70;99.90;;;;;;5072082;28;20469;-69
2022/10/01 02:49:35;;;;;;;3.77;3.47;;;11.60;99.90;;;;;;5072234;28;20534;-69
2022/10/01 02:52:13;;;;;;;4.13;3.30;;;11.50;99.90;;;;;;5075898;28;20483;-69
2022/10/01 02:54:45;;;;;;;3.73;3.43;;;11.60;99.90;;;;;;5075521;28;20906;-69
2022/10/01 02:57:27;;;;;;;3.80;3.50;;;11.70;99.90;;;;;;5075374;28;20416;-69
2022/10/01 03:00:07;;;;;;;4.30;3.93;;;11.60;99.90;;;;;;5075326;28;20417;-70
2022/10/01 03:02:33;;;;;;;4.43;3.77;;;11.70;99.90;;;;;;5075514;28;20767;-70
2022/10/01 03:04:58;;;;;;;3.43;3.13;;;11.70;99.90;;;;;;5075348;28;20401;-69
2022/10/01 03:07:25;;;;;;;4.93;4.10;;;11.70;99.90;;;;;;5075264;28;20186;-69
2022/10/01 03:09:51;;;;;;;4.50;3.87;;;11.70;99.90;;;;;;5075472;28;20559;-70
2022/10/01 03:12:17;;;;;;;3.50;3.20;;;11.60;99.90;;;;;;5075213;28;20409;-69
2022/10/01 03:14:44;;;;;;;3.90;3.50;;;11.60;99.90;;;;;;5075195;28;20558;-69
2022/10/01 03:17:11;;;;;;;3.97;3.57;;;11.50;99.90;;;;;;5074706;28;20398;-69
2022/10/01 03:19:36;;;;;;;3.47;2.80;;;11.60;99.90;;;;;;5075074;28;20457;-69
2022/10/01 03:22:02;;;;;;;3.50;3.20;;;11.60;99.90;;;;;;5075214;28;20426;-69
2022/10/01 03:24:28;;;;;;;3.57;3.27;;;11.50;99.90;;;;;;5075228;28;20227;-69
2022/10/01 03:26:57;;;;;;;3.80;3.50;;;11.40;99.90;;;;;;5074833;28;20179;-69
2022/10/01 03:29:24;;;;;;;4.70;3.50;;;11.40;99.90;;;;;;5074558;28;20208;-69
2022/10/01 03:31:49;;;;;;;4.30;3.80;;;11.40;99.90;;;;;;5073237;28;20423;-69
2022/10/01 03:34:15;;;;;;;4.57;3.93;;;11.40;99.90;;;;;;5074956;28;20766;-69
2022/10/01 03:36:40;;;;;;;3.47;3.17;;;11.50;99.90;;;;;;5075229;28;20259;-69
2022/10/01 03:39:06;;;;;;;4.37;3.97;;;11.40;99.90;;;;;;5074880;28;20712;-68
2022/10/01 03:41:32;;;;;;;3.70;3.40;;;11.30;99.90;;;;;;5074539;28;20615;-69
2022/10/01 03:43:58;;;;;;;4.03;3.63;;;11.20;99.90;;;;;;5074925;28;20174;-69
2022/10/01 03:46:25;;;;;;;2.87;2.67;;;11.40;99.90;;;;;;5074424;28;20940;-69
2022/10/01 03:48:51;;;;;;;3.90;3.47;;;11.50;99.90;;;;;;5074312;28;20744;-69
2022/10/01 03:51:19;;;;;;;3.43;3.00;;;11.50;99.90;;;;;;5074558;28;20435;-68
2022/10/01 03:53:45;;;;;;;3.93;3.53;;;11.60;99.90;;;;;;5074593;28;20423;-69
2022/10/01 03:56:12;;;;;;;3.60;2.50;;;11.40;99.90;;;;;;5074668;28;20457;-69
2022/10/01 03:58:37;;;;;;;3.30;3.00;;;11.50;99.90;;;;;;5074505;28;20425;-70
2022/10/01 04:01:03;;;;;;;3.30;3.00;;;11.50;99.90;;;;;;5073442;28;20419;-69
2022/10/01 04:03:29;;;;;;;3.40;3.10;;;11.40;99.90;;;;;;5074017;28;20253;-69
2022/10/01 04:05:55;;;;;;;3.50;3.20;;;11.40;99.90;;;;;;5074404;28;20522;-69
2022/10/01 04:08:21;;;;;;;3.60;3.30;;;11.30;99.90;;;;;;5074024;28;20438;-69
2022/10/01 04:10:48;;;;;;;3.30;3.00;;;11.10;99.90;;;;;;5074326;28;20294;-69
2022/10/01 04:13:14;;;;;;;3.40;3.00;;;11.20;99.90;;;;;;5074519;28;20162;-69
2022/10/01 04:15:39;;;;;;;3.83;2.73;;;11.20;99.90;;;;;;5073630;28;20879;-69
2022/10/01 04:18:06;;;;;;;3.23;2.87;;;11.20;99.90;;;;;;5073858;28;20425;-68
2022/10/01 04:20:33;;;;;;;3.30;3.00;;;11.30;99.90;;;;;;5074167;28;20415;-69
2022/10/01 04:22:58;;;;;;;3.00;2.70;;;11.30;99.90;;;;;;5074373;28;21006;-69
2022/10/01 04:25:24;;;;;;;2.60;2.40;;;11.30;99.90;;;;;;5073881;28;20436;-69
2022/10/01 04:28:01;;;;;;;3.30;2.40;;;11.30;99.90;;;;;;5073994;28;20239;-69
2022/10/01 04:30:30;;;;;;;2.97;2.73;;;11.40;99.90;;;;;;5072438;28;20193;-69
2022/10/01 04:32:55;;;;;;;3.57;2.70;;;11.30;99.90;;;;;;5073807;28;20404;-69
2022/10/01 04:35:21;;;;;;;4.30;2.57;;;11.30;99.90;;;;;;5073943;28;20920;-68
2022/10/01 04:37:48;;;;;;;4.13;2.20;;;11.40;99.90;;;;;;5073890;28;20197;-69
2022/10/01 04:40:13;;;;;;;2.30;2.10;;;11.40;99.90;;;;;;5073794;28;20424;-68
2022/10/01 04:42:41;;;;;;;2.40;2.20;;;11.30;99.90;;;;;;5073490;28;20408;-68
2022/10/01 04:45:09;;;;;;;2.40;2.20;;;11.30;99.90;;;;;;5073707;28;20257;-69
2022/10/01 04:47:35;;;;;;;2.53;2.33;;;11.30;99.90;;;;;;5073554;28;20519;-69
2022/10/01 04:50:01;;;;;;;2.13;1.93;;;11.30;99.90;;;;;;5073274;28;20547;-69
2022/10/01 04:52:27;;;;;;;2.10;1.93;;;11.40;99.90;;;;;;5073767;28;20396;-68
2022/10/01 04:54:53;;;;;;;2.83;2.63;;;11.50;99.90;;;;;;5073710;28;20773;-68
2022/10/01 04:57:21;;;;;;;2.00;1.90;;;11.40;99.90;;;;;;5073634;28;20470;-69
2022/10/01 04:59:47;;;;;;;2.27;2.07;;;11.40;99.90;;;;;;5073480;28;20307;-69
2022/10/01 05:02:13;;;;;;;2.30;2.10;;;11.40;99.90;;;;;;5073052;28;20842;-69
2022/10/01 05:04:39;;;;;;;3.73;2.73;;;11.30;99.90;;;;;;5073527;28;20411;-68
2022/10/01 05:07:04;;;;;;;3.30;2.53;;;11.30;99.90;;;;;;5073511;28;20177;-69
2022/10/01 05:09:30;;;;;;;2.70;2.50;;;11.40;99.90;;;;;;5072201;28;20193;-68
2022/10/01 05:11:56;;;;;;;2.13;1.93;;;11.50;99.90;;;;;;5072990;28;20400;-69
2022/10/01 05:14:21;;;;;;;2.60;2.37;;;11.60;99.90;;;;;;5073148;28;20162;-69
2022/10/01 05:16:47;;;;;;;2.60;2.03;;;11.60;99.90;;;;;;5072968;28;20166;-69
2022/10/01 05:19:13;;;;;;;2.20;2.00;;;11.60;99.90;;;;;;5073447;28;20270;-69
2022/10/01 05:21:39;;;;;;;2.07;1.87;;;11.60;99.90;;;;;;5072633;28;20180;-69
2022/10/01 05:24:04;;;;;;;2.87;2.23;;;11.60;99.90;;;;;;5072640;28;20408;-69
2022/10/01 05:26:31;;;;;;;3.83;2.67;;;11.60;99.90;;;;;;5072145;28;20739;-69
2022/10/01 05:28:59;;;;;;;2.10;1.93;;;11.80;99.90;;;;;;5062579;28;20202;-68
2022/10/01 05:31:25;;;;;;;2.23;1.97;;;11.80;99.90;;;;;;5062552;28;20420;-72
2022/10/01 05:33:51;;;;;;;2.10;1.90;;;11.90;99.90;;;;;;5064043;28;20455;-71
2022/10/01 05:36:16;;;;;;;2.03;1.83;;;11.80;99.90;;;;;;5063842;28;20446;-70
2022/10/01 05:38:42;;;;;;;5.60;1.97;;;11.70;99.90;;;;;;5063046;28;20190;-70
2022/10/01 05:41:08;;;;;;;2.27;1.67;;;11.70;99.90;;;;;;5063535;28;20859;-70
2022/10/01 05:43:35;;;;;;;2.17;1.70;;;11.70;99.90;;;;;;5063364;28;20670;-71
2022/10/01 05:46:01;;;;;;;2.47;2.10;;;11.70;99.90;;;;;;5063015;28;20408;-71
2022/10/01 05:48:27;;;;;;;2.07;1.93;;;11.70;99.90;;;;;;5063254;28;20440;-70
2022/10/01 05:50:53;;;;;;;2.20;2.00;;;11.80;99.90;;;;;;5063171;28;20460;-71
2022/10/01 05:53:19;;;;;;;2.03;1.90;;;12.00;99.90;;;;;;5061897;28;20176;-70
2022/10/01 05:55:45;;;;;;;2.83;1.63;;;12.20;99.90;;;;;;5063831;28;20413;-70
2022/10/01 05:58:12;;;;;;;2.00;1.80;;;12.30;99.90;;;;;;5063174;28;20485;-71
2022/10/01 06:00:40;;;;;;;3.23;2.00;;;12.10;99.90;;;;;;5062632;28;20228;-70
2022/10/01 06:03:06;;;;;;;1.73;1.60;;;12.10;99.90;;;;;;5070400;28;20426;-71
2022/10/01 06:05:34;;;;;;;2.07;1.60;;;12.20;99.90;;;;;;5072808;28;20874;-71
2022/10/01 06:08:00;;;;;;;2.87;2.17;;;12.10;99.90;;;;;;5072580;28;20913;-68
2022/10/01 06:10:29;;;;;;;9.13;2.33;;;12.00;99.90;;;;;;5072571;28;20497;-68
2022/10/01 06:13:01;;;;;;;1.70;1.60;;;12.00;99.90;;;;;;5072636;28;20410;-69
2022/10/01 06:15:28;;;;;;;2.10;1.90;;;12.00;99.90;;;;;;5072043;28;20889;-68
2022/10/01 06:17:53;;;;;;;1.57;1.47;;;12.00;99.90;;;;;;5072503;28;20434;-68
2022/10/01 06:20:19;;;;;;;1.70;1.60;;;11.90;99.90;;;;;;5072234;28;20771;-68
2022/10/01 06:22:53;;;;;;;3.00;2.10;;;11.90;99.90;;;;;;5072479;28;20170;-69
2022/10/01 06:25:18;;;;;;;4.90;1.93;;;11.60;99.90;;;;;;5073784;28;20490;-69
2022/10/01 06:27:49;;;;;;;2.93;2.43;;;11.60;99.90;;;;;;5076062;28;20929;-68
2022/10/01 06:30:15;;;;;;;2.77;2.30;;;11.60;99.90;;;;;;5074824;28;20190;-69
2022/10/01 06:32:41;;;;;;;2.50;2.17;;;11.50;99.90;;;;;;5075260;28;20403;-69
2022/10/01 06:35:07;;;;;;;2.00;1.80;;;11.60;99.90;;;;;;5075847;28;20168;-69
2022/10/01 06:37:37;;;;;;;2.33;2.13;;;11.80;99.90;;;;;;5075778;28;20182;-69
2022/10/01 06:40:03;;;;;;;1.90;1.70;;;11.80;99.90;;;;;;5076370;28;20548;-69
2022/10/01 06:42:29;;;;;;;3.60;2.07;;;11.70;99.90;;;;;;5074354;28;20427;-69
2022/10/01 06:44:54;;;;;;;2.10;1.80;;;11.70;99.90;;;;;;5076048;28;20408;-69
2022/10/01 06:47:20;;;;;;;2.40;2.20;;;11.60;99.90;;;;;;5075079;28;20213;-69
2022/10/01 06:49:45;;;;;;;5.63;2.40;;;11.50;99.90;;;;;;5075767;28;20263;-69
2022/10/01 06:54:55;;;;;;;2.23;1.87;;;11.50;99.90;;;;;;5076013;28;20189;-69
2022/10/01 06:57:20;;;;;;;2.33;2.13;;;11.70;99.90;;;;;;5076010;28;20451;-69
2022/10/01 06:59:46;;;;;;;5.80;2.70;;;11.60;99.90;;;;;;5075845;28;20528;-69
2022/10/01 07:02:22;;;;;;;2.67;2.10;;;11.70;99.90;;;;;;5075087;28;20645;-70
2022/10/01 07:04:48;;;;;;;3.27;1.90;;;11.80;99.90;;;;;;5075551;28;20162;-69
2022/10/01 07:07:13;;;;;;;2.60;2.00;;;11.80;99.90;;;;;;5075282;28;20437;-69
2022/10/01 07:09:39;;;;;;;1.70;1.60;;;11.90;99.90;;;;;;5075543;28;20205;-69
2022/10/01 07:12:05;;;;;;;2.30;2.10;;;11.80;99.90;;;;;;5075389;28;20636;-70
2022/10/01 07:14:30;;;;;;;2.27;2.07;;;11.90;99.90;;;;;;5075454;28;20667;-69
2022/10/01 07:16:56;;;;;;;2.70;2.50;;;11.80;99.90;;;;;;5074874;28;20435;-69
2022/10/01 07:19:21;;;;;;;2.20;2.10;;;11.90;99.90;;;;;;5075168;28;20549;-69
2022/10/01 07:21:47;;;;;;;2.27;2.07;;;11.80;99.90;;;;;;5075117;28;20215;-69
2022/10/01 07:24:13;;;;;;;2.80;2.47;;;11.90;99.90;;;;;;5075360;28;20759;-69
2022/10/01 07:26:39;;;;;;;3.00;2.00;;;12.00;99.90;;;;;;5075352;28;20182;-69
2022/10/01 07:29:05;;;;;;;2.77;2.57;;;12.10;99.90;;;;;;5075224;28;20199;-70
2022/10/01 07:31:30;;;;;;;3.47;2.40;;;12.10;99.90;;;;;;5074232;28;20424;-71
2022/10/01 07:33:57;;;;;;;2.60;2.40;;;12.00;99.90;;;;;;5075590;28;20170;-69
2022/10/01 07:36:23;;;;;;;2.80;2.40;;;12.10;99.90;;;;;;5074906;28;20197;-69
2022/10/01 07:38:50;;;;;;;2.37;2.10;;;12.30;99.90;;;;;;5074862;28;20954;-69
2022/10/01 07:41:16;;;;;;;3.90;2.60;;;12.20;99.90;;;;;;5075236;28;20168;-70
2022/10/01 07:43:42;;;;;;;3.20;2.60;;;12.20;99.90;;;;;;5075542;28;20408;-69
2022/10/01 07:46:08;;;;;;;3.50;2.53;;;12.30;99.90;;;;;;5074291;28;20404;-70
2022/10/01 07:48:34;;;;;;;2.50;2.30;;;12.30;99.90;;;;;;5072909;28;20427;-71
2022/10/01 07:51:00;;;;;;;2.60;2.30;;;12.30;99.90;;;;;;5074740;28;20453;-69
2022/10/01 07:53:26;;;;;;;2.53;2.33;;;12.40;99.90;;;;;;5074614;28;20169;-70
2022/10/01 07:55:52;;;;;;;2.27;2.07;;;12.40;99.90;;;;;;5074900;28;20166;-69
2022/10/01 07:58:17;;;;;;;2.30;2.10;;;12.30;99.90;;;;;;5074411;28;20433;-70
2022/10/01 08:00:43;;;;;;;4.90;2.80;;;12.30;99.90;;;;;;5074099;28;20185;-69
2022/10/01 08:03:12;;;;;;;6.20;2.43;;;12.10;99.90;;;;;;5072677;28;20260;-69
2022/10/01 08:05:41;;;;;;;2.27;2.10;;;12.10;99.90;;;;;;5074891;28;20408;-69
2022/10/01 08:08:07;;;;;;;2.27;2.07;;;12.30;99.90;;;;;;5074188;28;20428;-70
2022/10/01 08:10:37;;;;;;;1.93;1.80;;;12.50;99.90;;;;;;5072733;28;20466;-70
2022/10/01 08:13:07;;;;;;;2.27;2.07;;;12.10;99.90;;;;;;5074239;28;20889;-70
2022/10/01 08:15:32;;;;;;;2.47;2.23;;;12.10;99.90;;;;;;5074278;28;20819;-70
2022/10/01 08:18:02;;;;;;;3.13;2.80;;;12.00;99.90;;;;;;5074002;28;20458;-70
2022/10/01 08:20:27;;;;;;;3.20;2.17;;;12.00;99.90;;;;;;5072400;28;20193;-70
2022/10/01 08:22:53;;;;;;;2.40;2.03;;;12.00;99.90;;;;;;5072690;28;20432;-70
2022/10/01 08:25:19;;;;;;;2.27;2.03;;;12.10;99.90;;;;;;5073765;28;20253;-70
2022/10/01 08:27:44;;;;;;;2.40;2.20;;;12.10;99.90;;;;;;5075289;28;20275;-70
2022/10/01 08:30:10;;;;;;;2.80;2.20;;;12.00;99.90;;;;;;5074546;28;20200;-70
2022/10/01 08:32:35;;;;;;;3.33;2.50;;;12.00;99.90;;;;;;5073415;28;20282;-70
2022/10/01 08:35:03;;;;;;;2.90;2.57;;;11.90;99.90;;;;;;5074024;28;20180;-70
2022/10/01 08:37:28;;;;;;;2.77;2.57;;;12.10;99.90;;;;;;5074185;28;20195;-70
2022/10/01 08:39:55;;;;;;;2.10;1.90;;;12.10;99.90;;;;;;5073000;28;20483;-70
2022/10/01 08:42:42;;;;;;;2.33;2.13;;;12.20;99.90;;;;;;5073748;28;20174;-70
2022/10/01 08:45:25;;;;;;;2.00;1.90;;;12.10;99.90;;;;;;5073901;28;20391;-70
2022/10/01 08:48:04;;;;;;;2.30;2.10;;;12.20;99.90;;;;;;5072742;28;20535;-69
2022/10/01 08:50:51;;;;;;;3.50;2.57;;;12.10;99.90;;;;;;5069900;28;20467;-70
2022/10/01 08:53:27;;;;;;;2.37;2.17;;;12.10;99.90;;;;;;5053978;28;20417;-70
2022/10/01 08:55:54;;;;;;;3.10;2.23;;;12.10;99.90;;;;;;5053576;28;20382;-70
2022/10/01 08:58:27;;;;;;;2.73;2.53;;;12.10;99.90;;;;;;5053611;28;20475;-69
2022/10/01 09:00:53;;;;;;;3.43;2.47;;;12.10;99.90;;;;;;5053143;28;20386;-70
2022/10/01 09:03:19;;;;;;;2.00;1.90;;;12.10;99.90;;;;;;5053930;28;20405;-70
2022/10/01 09:06:00;;;;;;;2.50;2.13;;;12.20;99.90;;;;;;5053271;28;20483;-70
2022/10/01 09:09:10;;;;;;;2.77;2.30;;;12.20;99.90;;;;;;5053947;28;20191;-71
2022/10/01 09:12:13;;;;;;;3.03;2.43;;;12.40;99.90;;;;;;5039470;28;20439;-70
2022/10/01 09:15:02;;;;;;;2.17;1.97;;;12.50;99.90;;;;;;5073481;28;20808;-70
2022/10/01 09:17:40;;;;;;;2.67;2.10;;;12.40;99.90;;;;;;5072938;28;20791;-71
2022/10/01 09:20:18;;;;;;;2.60;1.90;;;12.50;99.90;;;;;;5073397;28;20756;-71
2022/10/01 09:22:52;;;;;;;1.93;1.83;;;12.60;99.90;;;;;;5073284;28;20423;-70
2022/10/01 09:25:23;;;;;;;3.60;2.17;;;12.60;99.90;;;;;;5073483;28;20792;-70
2022/10/01 09:28:12;;;;;;;4.07;2.33;;;12.60;99.90;;;;;;5071921;28;20456;-71
2022/10/01 09:30:44;;;;;;;2.83;1.97;;;12.70;99.90;;;;;;5073359;28;20436;-70
2022/10/01 09:33:16;;;;;;;2.10;1.90;;;12.90;99.90;;;;;;5073157;28;20471;-70
2022/10/01 09:35:47;;;;;;;2.63;2.20;;;12.70;99.90;;;;;;5072972;28;20385;-71
2022/10/01 09:38:19;;;;;;;2.70;2.40;;;12.90;99.90;;;;;;5072936;28;20455;-70
2022/10/01 09:40:53;;;;;;;3.50;2.40;;;12.80;99.90;;;;;;5073036;28;20485;-71
2022/10/01 09:43:25;;;;;;;2.43;2.03;;;12.70;99.90;;;;;;5072446;28;20394;-71
2022/10/01 09:45:51;;;;;;;1.90;1.80;;;13.00;99.90;;;;;;5073333;28;20396;-71
2022/10/01 09:48:37;;;;;;;2.30;2.10;;;13.00;99.90;;;;;;5072977;28;20848;-70
2022/10/01 09:51:13;;;;;;;2.20;2.00;;;12.90;99.90;;;;;;5072636;28;20976;-71
2022/10/01 09:53:47;;;;;;;1.70;1.60;;;13.00;99.90;;;;;;5073130;28;20392;-71
2022/10/01 09:56:37;;;;;;;9.77;2.50;;;12.90;99.90;;;;;;5072008;28;20395;-71
2022/10/01 09:59:10;;;;;;;1.77;1.30;;;12.90;99.90;;;;;;5073358;28;20414;-71
2022/10/01 10:01:49;;;;;;;1.93;1.47;;;12.90;99.90;;;;;;5076549;28;20380;-71
2022/10/01 10:04:24;;;;;;;2.33;1.60;;;12.90;99.90;;;;;;5076962;28;20386;-71
2022/10/01 10:06:58;;;;;;;2.37;1.83;;;13.00;99.90;;;;;;5075287;28;20420;-70
2022/10/01 10:09:29;;;;;;;2.87;2.00;;;12.90;99.90;;;;;;5076877;28;20443;-71
2022/10/01 10:11:55;;;;;;;1.47;1.37;;;12.90;99.90;;;;;;5076497;28;20383;-71
2022/10/01 10:14:30;;;;;;;1.87;1.77;;;12.90;99.90;;;;;;5076556;28;20404;-70
2022/10/01 10:16:56;;;;;;;1.70;1.20;;;13.10;99.90;;;;;;5077250;28;20384;-71
2022/10/01 10:19:28;;;;;;;1.83;1.50;;;13.10;99.90;;;;;;5077015;28;20702;-71
2022/10/01 10:21:58;;;;;;;2.20;1.63;;;13.20;99.90;;;;;;5077229;28;20436;-71
2022/10/01 10:24:32;;;;;;;5.33;1.93;;;13.30;99.90;;;;;;5077329;28;20391;-70
2022/10/01 10:27:00;;;;;;;1.47;1.17;;;13.20;99.90;;;;;;5075862;28;20941;-69
2022/10/01 10:29:36;;;;;;;1.60;0.80;;;13.20;99.90;;;;;;5076093;28;20517;-70
2022/10/01 10:32:33;;;;;;;1.30;1.00;;;13.20;99.90;;;;;;5073734;28;20439;-72
2022/10/01 10:35:03;;;;;;;1.23;1.13;;;13.10;99.90;;;;;;5063198;28;20410;-70
2022/10/01 10:37:33;;;;;;;1.37;0.80;;;13.20;99.90;;;;;;5076225;28;21011;-71
2022/10/01 10:39:58;;;;;;;1.13;1.03;;;13.20;99.90;;;;;;5076565;28;20493;-71
2022/10/01 10:42:24;;;;;;;1.23;1.10;;;13.30;99.90;;;;;;5076616;28;20446;-70
2022/10/01 10:44:53;;;;;;;1.63;1.10;;;13.30;99.90;;;;;;5076317;28;20179;-70
2022/10/01 10:47:21;;;;;;;1.37;1.10;;;13.20;99.90;;;;;;5076176;28;20469;-71
2022/10/01 10:49:53;;;;;;;0.97;0.87;;;13.30;99.90;;;;;;5077563;28;20827;-70
2022/10/01 10:52:19;;;;;;;1.73;1.43;;;13.30;99.90;;;;;;5077667;28;20391;-72
2022/10/01 10:54:46;;;;;;;1.20;0.97;;;13.40;99.90;;;;;;5077353;28;20420;-70
2022/10/01 10:57:28;;;;;;;0.80;0.70;;;13.60;99.90;;;;;;5076693;28;20298;-70
2022/10/01 11:00:00;;;;;;;1.60;1.00;;;13.50;99.90;;;;;;5077241;28;20387;-70
2022/10/01 11:02:30;;;;;;;1.60;0.93;;;13.60;99.90;;;;;;5076330;28;20414;-71
2022/10/01 11:05:17;;;;;;;0.90;0.80;;;13.60;99.90;;;;;;5076740;28;20396;-71
2022/10/01 11:07:45;;;;;;;1.23;1.00;;;13.80;99.90;;;;;;5076192;28;20427;-70
2022/10/01 11:10:40;;;;;;;0.90;0.70;;;14.00;99.90;;;;;;5076185;28;20445;-70
2022/10/01 11:13:28;;;;;;;1.93;1.10;;;14.20;99.90;;;;;;5022031;28;21000;-70
2022/10/01 11:16:24;;;;;;;1.47;0.90;;;14.50;99.90;;;;;;5080192;28;20384;-70
2022/10/01 11:19:14;;;;;;;0.80;0.70;;;14.40;99.90;;;;;;5080053;28;20512;-70
2022/10/01 11:21:57;;;;;;;1.60;1.03;;;14.60;99.90;;;;;;5080103;28;20719;-70
2022/10/01 11:24:53;;;;;;;1.80;1.00;;;14.50;99.90;;;;;;5081423;28;20383;-70
2022/10/01 11:27:46;;;;;;;1.00;0.90;;;14.70;99.90;;;;;;5072160;28;20528;-70
2022/10/01 11:30:25;;;;;;;1.37;0.90;;;14.60;99.90;;;;;;5081430;28;20431;-70
2022/10/01 11:32:53;;;;;;;1.43;1.20;;;14.50;99.90;;;;;;5078080;28;20417;-69
2022/10/01 11:35:38;;;;;;;1.20;1.10;;;14.50;99.90;;;;;;5071876;28;20759;-70
2022/10/01 11:38:22;;;;;;;2.00;1.20;;;14.60;99.90;;;;;;5070197;28;20423;-71
2022/10/01 11:40:55;;;;;;;1.60;1.07;;;14.50;99.90;;;;;;5067283;28;20411;-72
2022/10/01 11:43:36;;;;;;;1.57;0.90;;;14.30;99.90;;;;;;5065425;28;20413;-71
2022/10/01 11:46:14;;;;;;;1.70;0.80;;;14.30;99.90;;;;;;5066271;28;20867;-70
2022/10/01 11:48:52;;;;;;;1.37;0.90;;;14.20;99.90;;;;;;5065387;28;20546;-69
2022/10/01 11:51:38;;;;;;;0.77;0.70;;;14.30;99.90;;;;;;5065371;28;20471;-69
2022/10/01 11:54:10;;;;;;;1.73;0.83;;;14.30;99.90;;;;;;5065879;28;20411;-75
2022/10/01 11:59:42;;;;;;;1.83;0.90;;;14.10;99.90;;;;;;5065512;28;20406;-71
2022/10/01 12:02:31;;;;;;;1.40;0.70;;;14.10;99.90;;;;;;5064325;28;20472;-70
2022/10/01 12:05:06;;;;;;;1.73;1.00;;;14.00;99.90;;;;;;5064180;28;20462;-70
2022/10/01 12:07:43;;;;;;;1.30;1.03;;;14.10;99.90;;;;;;5064961;28;20694;-68
2022/10/01 12:10:37;;;;;;;1.00;0.90;;;14.20;99.90;;;;;;5064706;28;20536;-70
2022/10/01 12:13:22;;;;;;;1.23;1.00;;;14.10;99.90;;;;;;5074454;28;20396;-69
2022/10/01 12:15:53;;;;;;;0.80;0.80;;;14.30;99.90;;;;;;5074327;28;20446;-69
2022/10/01 12:18:46;;;;;;;1.03;0.90;;;14.40;99.90;;;;;;5073368;28;20408;-68
2022/10/01 12:21:24;;;;;;;3.10;2.07;;;14.40;99.90;;;;;;5074165;28;20936;-70
2022/10/01 12:24:10;;;;;;;2.10;1.30;;;14.50;99.90;;;;;;5073127;28;20447;-69
2022/10/01 12:26:45;;;;;;;2.07;1.30;;;14.60;99.90;;;;;;5074197;28;20441;-70
2022/10/01 12:29:22;;;;;;;1.60;1.30;;;14.70;99.90;;;;;;5073548;28;20428;-70
2022/10/01 12:32:03;;;;;;;2.90;1.10;;;14.90;99.90;;;;;;5073007;28;20414;-69
2022/10/01 12:34:48;;;;;;;0.87;0.70;;;14.90;99.90;;;;;;5073102;28;20390;-69
2022/10/01 12:37:16;;;;;;;0.80;0.70;;;14.70;99.90;;;;;;5073703;28;20470;-69
2022/10/01 12:40:07;;;;;;;1.23;1.10;;;14.90;99.90;;;;;;5073468;28;20436;-69
2022/10/01 12:42:45;;;;;;;2.30;0.83;;;14.80;99.90;;;;;;5074269;28;20476;-69
2022/10/01 12:45:21;;;;;;;1.63;1.00;;;14.80;99.90;;;;;;5073735;28;20399;-71
2022/10/01 12:48:15;;;;;;;1.00;0.90;;;14.90;99.90;;;;;;5073247;28;20423;-71
2022/10/01 12:50:58;;;;;;;1.60;1.10;;;15.00;99.90;;;;;;5073891;28;20550;-70
2022/10/01 12:53:33;;;;;;;1.00;0.80;;;15.10;99.90;;;;;;5073839;28;20387;-69
2022/10/01 12:56:07;;;;;;;1.00;0.80;;;15.00;99.90;;;;;;5074079;28;20399;-70
2022/10/01 12:58:50;;;;;;;1.60;1.10;;;14.70;99.90;;;;;;5074209;28;20417;-69
2022/10/01 13:01:26;;;;;;;0.97;0.80;;;14.80;99.90;;;;;;5074210;28;20411;-70
2022/10/01 13:04:14;;;;;;;1.40;1.30;;;14.90;99.90;;;;;;5073580;28;20660;-70
2022/10/01 13:07:03;;;;;;;1.00;0.87;;;15.10;99.90;;;;;;5078445;28;20379;-69
2022/10/01 13:09:44;;;;;;;1.40;1.23;;;15.20;99.90;;;;;;5090457;28;20443;-69
2022/10/01 13:12:39;;;;;;;2.00;0.80;;;15.30;99.90;;;;;;5089048;28;20411;-69
2022/10/01 13:15:12;;;;;;;1.00;0.90;;;15.40;99.90;;;;;;5064512;28;20414;-70
2022/10/01 13:17:59;;;;;;;1.23;0.90;;;15.60;99.90;;;;;;5073356;28;20415;-70